sensor_id;sensor_type;location;lat;lon;timestamp;P1;durP1;ratioP1;P2;durP2;ratioP2
5507;SDS011;2776;51.046;6.772;2023-12-20T00:02:16;7.43;;;4.97;;
5507;SDS011;2776;51.046;6.772;2023-12-20T00:04:43;8.17;;;5.13;;
5507;SDS011;2776;51.046;6.772;2023-12-20T00:07:10;6.47;;;4.63;;
5507;SDS011;2776;51.046;6.772;2023-12-20T00:09:36;4.53;;;3.63;;
5507;SDS011;2776;51.046;6.772;2023-12-20T00:12:03;4.33;;;2.53;;
5507;SDS011;2776;51.046;6.772;2023-12-20T00:14:30;2.80;;;2.20;;
5507;SDS011;2776;51.046;6.772;2023-12-20T00:16:57;4.23;;;2.63;;
5507;SDS011;2776;51.046;6.772;2023-12-20T00:19:25;3.27;;;2.50;;
5507;SDS011;2776;51.046;6.772;2023-12-20T00:21:52;4.97;;;2.50;;
5507;SDS011;2776;51.046;6.772;2023-12-20T00:24:18;4.30;;;3.07;;
5507;SDS011;2776;51.046;6.772;2023-12-20T00:26:45;2.93;;;2.33;;
5507;SDS011;2776;51.046;6.772;2023-12-20T00:29:12;4.97;;;2.87;;
5507;SDS011;2776;51.046;6.772;2023-12-20T00:31:39;3.57;;;2.70;;
5507;SDS011;2776;51.046;6.772;2023-12-20T00:34:05;6.10;;;2.83;;
5507;SDS011;2776;51.046;6.772;2023-12-20T00:36:33;5.27;;;2.03;;
5507;SDS011;2776;51.046;6.772;2023-12-20T00:39:00;4.50;;;2.77;;
5507;SDS011;2776;51.046;6.772;2023-12-20T00:41:27;5.90;;;2.80;;
5507;SDS011;2776;51.046;6.772;2023-12-20T00:43:54;4.37;;;2.93;;
5507;SDS011;2776;51.046;6.772;2023-12-20T01:06:35;9.43;;;4.97;;
5507;SDS011;2776;51.046;6.772;2023-12-20T01:09:01;6.83;;;4.47;;
5507;SDS011;2776;51.046;6.772;2023-12-20T01:11:28;5.33;;;3.80;;
5507;SDS011;2776;51.046;6.772;2023-12-20T01:13:55;7.47;;;3.60;;
5507;SDS011;2776;51.046;6.772;2023-12-20T01:16:22;8.67;;;4.73;;
5507;SDS011;2776;51.046;6.772;2023-12-20T01:18:48;7.07;;;4.07;;
5507;SDS011;2776;51.046;6.772;2023-12-20T01:21:15;9.30;;;4.67;;
5507;SDS011;2776;51.046;6.772;2023-12-20T01:23:43;9.13;;;5.27;;
5507;SDS011;2776;51.046;6.772;2023-12-20T01:26:10;8.57;;;5.07;;
5507;SDS011;2776;51.046;6.772;2023-12-20T01:28:37;12.13;;;5.90;;
5507;SDS011;2776;51.046;6.772;2023-12-20T01:31:04;18.10;;;7.03;;
5507;SDS011;2776;51.046;6.772;2023-12-20T01:33:31;11.10;;;6.40;;
5507;SDS011;2776;51.046;6.772;2023-12-20T01:35:57;9.50;;;6.37;;
5507;SDS011;2776;51.046;6.772;2023-12-20T01:38:24;12.13;;;5.93;;
5507;SDS011;2776;51.046;6.772;2023-12-20T01:40:52;15.77;;;6.10;;
5507;SDS011;2776;51.046;6.772;2023-12-20T01:43:19;8.30;;;5.50;;
5507;SDS011;2776;51.046;6.772;2023-12-20T01:45:46;10.40;;;4.87;;
5507;SDS011;2776;51.046;6.772;2023-12-20T01:48:13;8.63;;;5.40;;
5507;SDS011;2776;51.046;6.772;2023-12-20T01:50:42;15.27;;;4.90;;
5507;SDS011;2776;51.046;6.772;2023-12-20T01:53:10;8.63;;;4.80;;
5507;SDS011;2776;51.046;6.772;2023-12-20T01:55:38;11.17;;;4.47;;
5507;SDS011;2776;51.046;6.772;2023-12-20T01:58:07;6.80;;;4.40;;
5507;SDS011;2776;51.046;6.772;2023-12-20T02:00:35;6.80;;;3.93;;
5507;SDS011;2776;51.046;6.772;2023-12-20T02:03:03;8.17;;;4.30;;
5507;SDS011;2776;51.046;6.772;2023-12-20T02:05:30;5.63;;;4.60;;
5507;SDS011;2776;51.046;6.772;2023-12-20T02:07:57;9.77;;;3.90;;
5507;SDS011;2776;51.046;6.772;2023-12-20T02:10:24;11.03;;;5.17;;
5507;SDS011;2776;51.046;6.772;2023-12-20T02:12:51;6.33;;;3.10;;
5507;SDS011;2776;51.046;6.772;2023-12-20T02:15:19;7.07;;;2.93;;
5507;SDS011;2776;51.046;6.772;2023-12-20T02:17:46;10.10;;;3.13;;
5507;SDS011;2776;51.046;6.772;2023-12-20T02:20:13;4.40;;;2.80;;
5507;SDS011;2776;51.046;6.772;2023-12-20T02:22:42;6.00;;;3.60;;
5507;SDS011;2776;51.046;6.772;2023-12-20T02:25:07;10.33;;;2.70;;
5507;SDS011;2776;51.046;6.772;2023-12-20T02:27:34;5.90;;;2.90;;
5507;SDS011;2776;51.046;6.772;2023-12-20T02:30:01;6.70;;;2.43;;
5507;SDS011;2776;51.046;6.772;2023-12-20T02:32:28;5.20;;;2.00;;
5507;SDS011;2776;51.046;6.772;2023-12-20T02:34:55;6.80;;;1.77;;
5507;SDS011;2776;51.046;6.772;2023-12-20T02:37:22;5.80;;;2.30;;
5507;SDS011;2776;51.046;6.772;2023-12-20T02:39:50;8.53;;;2.13;;
5507;SDS011;2776;51.046;6.772;2023-12-20T02:42:17;4.07;;;1.90;;
5507;SDS011;2776;51.046;6.772;2023-12-20T02:44:44;13.37;;;1.53;;
5507;SDS011;2776;51.046;6.772;2023-12-20T02:47:10;7.47;;;1.87;;
5507;SDS011;2776;51.046;6.772;2023-12-20T02:49:37;11.73;;;2.53;;
5507;SDS011;2776;51.046;6.772;2023-12-20T02:52:04;6.03;;;1.20;;
5507;SDS011;2776;51.046;6.772;2023-12-20T02:54:31;9.70;;;1.57;;
5507;SDS011;2776;51.046;6.772;2023-12-20T02:56:59;8.37;;;1.87;;
5507;SDS011;2776;51.046;6.772;2023-12-20T02:59:25;2.73;;;1.33;;
5507;SDS011;2776;51.046;6.772;2023-12-20T03:01:52;4.37;;;0.97;;
5507;SDS011;2776;51.046;6.772;2023-12-20T03:04:19;4.20;;;0.83;;
5507;SDS011;2776;51.046;6.772;2023-12-20T03:06:46;1.43;;;1.00;;
5507;SDS011;2776;51.046;6.772;2023-12-20T03:09:12;4.10;;;1.70;;
5507;SDS011;2776;51.046;6.772;2023-12-20T03:11:39;6.53;;;1.60;;
5507;SDS011;2776;51.046;6.772;2023-12-20T03:14:07;16.27;;;2.50;;
5507;SDS011;2776;51.046;6.772;2023-12-20T03:16:34;6.67;;;1.40;;
5507;SDS011;2776;51.046;6.772;2023-12-20T03:19:00;5.23;;;1.67;;
5507;SDS011;2776;51.046;6.772;2023-12-20T03:21:27;8.33;;;1.70;;
5507;SDS011;2776;51.046;6.772;2023-12-20T03:23:54;4.43;;;2.27;;
5507;SDS011;2776;51.046;6.772;2023-12-20T03:26:20;14.93;;;1.53;;
5507;SDS011;2776;51.046;6.772;2023-12-20T03:28:48;4.77;;;1.87;;
5507;SDS011;2776;51.046;6.772;2023-12-20T03:31:16;4.40;;;1.53;;
5507;SDS011;2776;51.046;6.772;2023-12-20T03:33:42;5.10;;;1.70;;
5507;SDS011;2776;51.046;6.772;2023-12-20T03:36:09;11.10;;;1.60;;
5507;SDS011;2776;51.046;6.772;2023-12-20T03:38:36;4.23;;;1.70;;
5507;SDS011;2776;51.046;6.772;2023-12-20T03:41:03;4.70;;;1.50;;
5507;SDS011;2776;51.046;6.772;2023-12-20T03:43:30;2.90;;;1.77;;
5507;SDS011;2776;51.046;6.772;2023-12-20T03:45:57;8.70;;;2.53;;
5507;SDS011;2776;51.046;6.772;2023-12-20T03:48:26;7.80;;;2.27;;
5507;SDS011;2776;51.046;6.772;2023-12-20T03:50:53;6.47;;;1.80;;
5507;SDS011;2776;51.046;6.772;2023-12-20T03:53:18;11.13;;;1.57;;
5507;SDS011;2776;51.046;6.772;2023-12-20T03:55:45;3.63;;;1.40;;
5507;SDS011;2776;51.046;6.772;2023-12-20T03:58:12;6.23;;;1.60;;
5507;SDS011;2776;51.046;6.772;2023-12-20T04:00:38;2.77;;;1.60;;
5507;SDS011;2776;51.046;6.772;2023-12-20T04:03:05;5.27;;;1.93;;
5507;SDS011;2776;51.046;6.772;2023-12-20T04:05:34;11.00;;;2.00;;
5507;SDS011;2776;51.046;6.772;2023-12-20T04:08:01;6.43;;;1.77;;
5507;SDS011;2776;51.046;6.772;2023-12-20T04:10:28;7.23;;;1.50;;
5507;SDS011;2776;51.046;6.772;2023-12-20T04:12:55;2.43;;;1.57;;
5507;SDS011;2776;51.046;6.772;2023-12-20T04:15:21;3.27;;;1.77;;
5507;SDS011;2776;51.046;6.772;2023-12-20T04:17:48;8.17;;;1.90;;
5507;SDS011;2776;51.046;6.772;2023-12-20T04:20:15;3.90;;;1.87;;
5507;SDS011;2776;51.046;6.772;2023-12-20T04:22:43;4.70;;;2.83;;
5507;SDS011;2776;51.046;6.772;2023-12-20T04:25:09;4.93;;;1.80;;
5507;SDS011;2776;51.046;6.772;2023-12-20T04:27:36;10.50;;;1.90;;
5507;SDS011;2776;51.046;6.772;2023-12-20T04:30:03;9.37;;;2.70;;
5507;SDS011;2776;51.046;6.772;2023-12-20T04:32:30;2.70;;;1.63;;
5507;SDS011;2776;51.046;6.772;2023-12-20T04:34:57;4.17;;;1.90;;
5507;SDS011;2776;51.046;6.772;2023-12-20T04:37:24;4.63;;;1.57;;
5507;SDS011;2776;51.046;6.772;2023-12-20T04:39:52;3.93;;;1.87;;
5507;SDS011;2776;51.046;6.772;2023-12-20T04:42:19;10.13;;;2.50;;
5507;SDS011;2776;51.046;6.772;2023-12-20T04:44:46;3.47;;;1.90;;
5507;SDS011;2776;51.046;6.772;2023-12-20T04:47:13;10.23;;;2.00;;
5507;SDS011;2776;51.046;6.772;2023-12-20T04:49:39;4.47;;;2.13;;
5507;SDS011;2776;51.046;6.772;2023-12-20T04:52:06;3.47;;;1.80;;
5507;SDS011;2776;51.046;6.772;2023-12-20T04:54:33;7.67;;;2.30;;
5507;SDS011;2776;51.046;6.772;2023-12-20T04:57:01;2.60;;;1.80;;
5507;SDS011;2776;51.046;6.772;2023-12-20T04:59:28;6.23;;;2.20;;
5507;SDS011;2776;51.046;6.772;2023-12-20T05:01:54;5.60;;;1.80;;
5507;SDS011;2776;51.046;6.772;2023-12-20T05:04:21;7.90;;;2.63;;
5507;SDS011;2776;51.046;6.772;2023-12-20T05:06:47;5.27;;;1.73;;
5507;SDS011;2776;51.046;6.772;2023-12-20T05:09:15;3.33;;;1.30;;
5507;SDS011;2776;51.046;6.772;2023-12-20T05:11:42;5.63;;;2.13;;
5507;SDS011;2776;51.046;6.772;2023-12-20T05:14:10;8.83;;;2.50;;
5507;SDS011;2776;51.046;6.772;2023-12-20T05:16:37;7.20;;;2.50;;
5507;SDS011;2776;51.046;6.772;2023-12-20T05:19:04;7.77;;;2.40;;
5507;SDS011;2776;51.046;6.772;2023-12-20T05:21:31;5.77;;;2.50;;
5507;SDS011;2776;51.046;6.772;2023-12-20T05:23:58;5.20;;;2.13;;
5507;SDS011;2776;51.046;6.772;2023-12-20T05:26:25;5.70;;;2.10;;
5507;SDS011;2776;51.046;6.772;2023-12-20T05:28:52;6.20;;;1.87;;
5507;SDS011;2776;51.046;6.772;2023-12-20T05:31:20;3.30;;;1.87;;
5507;SDS011;2776;51.046;6.772;2023-12-20T05:33:47;5.80;;;1.83;;
5507;SDS011;2776;51.046;6.772;2023-12-20T05:36:13;6.17;;;2.10;;
5507;SDS011;2776;51.046;6.772;2023-12-20T05:38:40;3.63;;;1.87;;
5507;SDS011;2776;51.046;6.772;2023-12-20T05:41:07;3.17;;;1.83;;
5507;SDS011;2776;51.046;6.772;2023-12-20T05:43:34;9.40;;;1.83;;
5507;SDS011;2776;51.046;6.772;2023-12-20T05:46:01;7.63;;;2.00;;
5507;SDS011;2776;51.046;6.772;2023-12-20T05:48:29;9.97;;;2.23;;
5507;SDS011;2776;51.046;6.772;2023-12-20T05:50:56;6.13;;;1.70;;
5507;SDS011;2776;51.046;6.772;2023-12-20T05:53:23;4.30;;;1.93;;
5507;SDS011;2776;51.046;6.772;2023-12-20T05:55:50;10.60;;;2.30;;
5507;SDS011;2776;51.046;6.772;2023-12-20T05:58:17;4.50;;;2.13;;
5507;SDS011;2776;51.046;6.772;2023-12-20T06:00:43;2.80;;;1.50;;
5507;SDS011;2776;51.046;6.772;2023-12-20T06:03:10;1.57;;;1.13;;
5507;SDS011;2776;51.046;6.772;2023-12-20T06:05:38;4.60;;;1.70;;
5507;SDS011;2776;51.046;6.772;2023-12-20T06:08:05;11.43;;;2.70;;
5507;SDS011;2776;51.046;6.772;2023-12-20T06:10:32;1.30;;;1.17;;
5507;SDS011;2776;51.046;6.772;2023-12-20T06:12:59;8.77;;;1.87;;
5507;SDS011;2776;51.046;6.772;2023-12-20T06:15:26;3.97;;;1.73;;
5507;SDS011;2776;51.046;6.772;2023-12-20T06:17:52;10.33;;;2.00;;
5507;SDS011;2776;51.046;6.772;2023-12-20T06:20:19;9.43;;;2.73;;
5507;SDS011;2776;51.046;6.772;2023-12-20T06:22:47;7.83;;;1.83;;
5507;SDS011;2776;51.046;6.772;2023-12-20T06:25:14;12.27;;;2.57;;
5507;SDS011;2776;51.046;6.772;2023-12-20T06:27:41;3.87;;;1.60;;
5507;SDS011;2776;51.046;6.772;2023-12-20T06:30:07;7.23;;;2.63;;
5507;SDS011;2776;51.046;6.772;2023-12-20T06:32:35;3.50;;;1.87;;
5507;SDS011;2776;51.046;6.772;2023-12-20T06:35:03;6.63;;;1.80;;
5507;SDS011;2776;51.046;6.772;2023-12-20T06:37:31;6.23;;;2.17;;
5507;SDS011;2776;51.046;6.772;2023-12-20T06:39:59;1.40;;;1.20;;
5507;SDS011;2776;51.046;6.772;2023-12-20T06:42:25;4.07;;;1.77;;
5507;SDS011;2776;51.046;6.772;2023-12-20T06:44:52;8.87;;;1.70;;
5507;SDS011;2776;51.046;6.772;2023-12-20T06:47:19;5.37;;;1.37;;
5507;SDS011;2776;51.046;6.772;2023-12-20T06:49:45;11.97;;;2.50;;
5507;SDS011;2776;51.046;6.772;2023-12-20T06:52:12;6.13;;;1.60;;
5507;SDS011;2776;51.046;6.772;2023-12-20T06:54:39;5.57;;;2.27;;
5507;SDS011;2776;51.046;6.772;2023-12-20T06:57:07;7.37;;;2.17;;
5507;SDS011;2776;51.046;6.772;2023-12-20T06:59:37;3.13;;;1.77;;
5507;SDS011;2776;51.046;6.772;2023-12-20T07:02:05;8.37;;;1.67;;
5507;SDS011;2776;51.046;6.772;2023-12-20T07:04:32;9.63;;;1.93;;
5507;SDS011;2776;51.046;6.772;2023-12-20T07:06:59;4.67;;;1.47;;
5507;SDS011;2776;51.046;6.772;2023-12-20T07:09:27;7.67;;;1.50;;
5507;SDS011;2776;51.046;6.772;2023-12-20T07:11:54;7.37;;;2.60;;
5507;SDS011;2776;51.046;6.772;2023-12-20T07:14:22;3.53;;;2.10;;
5507;SDS011;2776;51.046;6.772;2023-12-20T07:16:48;4.80;;;1.93;;
5507;SDS011;2776;51.046;6.772;2023-12-20T07:19:15;7.00;;;1.60;;
5507;SDS011;2776;51.046;6.772;2023-12-20T07:21:42;6.27;;;1.90;;
5507;SDS011;2776;51.046;6.772;2023-12-20T07:24:09;13.03;;;1.63;;
5507;SDS011;2776;51.046;6.772;2023-12-20T07:26:36;4.23;;;1.87;;
5507;SDS011;2776;51.046;6.772;2023-12-20T07:29:03;4.50;;;2.03;;
5507;SDS011;2776;51.046;6.772;2023-12-20T07:31:31;8.53;;;2.20;;
5507;SDS011;2776;51.046;6.772;2023-12-20T07:33:58;10.53;;;2.27;;
5507;SDS011;2776;51.046;6.772;2023-12-20T07:36:25;4.63;;;1.93;;
5507;SDS011;2776;51.046;6.772;2023-12-20T07:38:51;4.03;;;1.80;;
5507;SDS011;2776;51.046;6.772;2023-12-20T07:41:18;9.37;;;2.07;;
5507;SDS011;2776;51.046;6.772;2023-12-20T07:43:46;5.03;;;1.77;;
5507;SDS011;2776;51.046;6.772;2023-12-20T07:46:12;3.83;;;1.77;;
5507;SDS011;2776;51.046;6.772;2023-12-20T07:48:40;5.93;;;2.03;;
5507;SDS011;2776;51.046;6.772;2023-12-20T07:51:07;6.10;;;2.80;;
5507;SDS011;2776;51.046;6.772;2023-12-20T07:53:34;7.37;;;2.27;;
5507;SDS011;2776;51.046;6.772;2023-12-20T07:56:02;4.40;;;2.70;;
5507;SDS011;2776;51.046;6.772;2023-12-20T07:58:39;6.67;;;2.10;;
5507;SDS011;2776;51.046;6.772;2023-12-20T08:01:05;5.63;;;2.70;;
5507;SDS011;2776;51.046;6.772;2023-12-20T08:03:33;4.77;;;2.50;;
5507;SDS011;2776;51.046;6.772;2023-12-20T08:06:01;11.23;;;2.53;;
5507;SDS011;2776;51.046;6.772;2023-12-20T08:08:28;6.70;;;1.90;;
5507;SDS011;2776;51.046;6.772;2023-12-20T08:10:55;3.60;;;1.37;;
5507;SDS011;2776;51.046;6.772;2023-12-20T08:13:24;6.33;;;2.67;;
5507;SDS011;2776;51.046;6.772;2023-12-20T08:15:51;6.80;;;2.00;;
5507;SDS011;2776;51.046;6.772;2023-12-20T08:18:17;12.13;;;2.30;;
5507;SDS011;2776;51.046;6.772;2023-12-20T08:20:44;4.77;;;1.77;;
5507;SDS011;2776;51.046;6.772;2023-12-20T08:23:13;4.43;;;1.60;;
5507;SDS011;2776;51.046;6.772;2023-12-20T08:25:40;5.43;;;1.90;;
5507;SDS011;2776;51.046;6.772;2023-12-20T08:28:07;5.63;;;2.20;;
5507;SDS011;2776;51.046;6.772;2023-12-20T08:30:34;5.73;;;2.17;;
5507;SDS011;2776;51.046;6.772;2023-12-20T08:33:01;12.03;;;1.93;;
5507;SDS011;2776;51.046;6.772;2023-12-20T08:35:28;5.33;;;2.43;;
5507;SDS011;2776;51.046;6.772;2023-12-20T08:37:54;7.07;;;1.80;;
5507;SDS011;2776;51.046;6.772;2023-12-20T08:40:22;7.50;;;2.20;;
5507;SDS011;2776;51.046;6.772;2023-12-20T08:42:49;4.27;;;1.90;;
5507;SDS011;2776;51.046;6.772;2023-12-20T08:45:16;4.20;;;1.33;;
5507;SDS011;2776;51.046;6.772;2023-12-20T08:47:42;6.37;;;2.13;;
5507;SDS011;2776;51.046;6.772;2023-12-20T08:50:10;5.43;;;1.77;;
5507;SDS011;2776;51.046;6.772;2023-12-20T08:52:37;8.93;;;3.07;;
5507;SDS011;2776;51.046;6.772;2023-12-20T08:55:04;3.70;;;1.60;;
5507;SDS011;2776;51.046;6.772;2023-12-20T08:57:33;4.47;;;1.53;;
5507;SDS011;2776;51.046;6.772;2023-12-20T08:59:59;6.03;;;1.77;;
5507;SDS011;2776;51.046;6.772;2023-12-20T09:02:26;2.20;;;1.50;;
5507;SDS011;2776;51.046;6.772;2023-12-20T09:04:53;4.70;;;1.20;;
5507;SDS011;2776;51.046;6.772;2023-12-20T09:07:20;3.20;;;1.20;;
5507;SDS011;2776;51.046;6.772;2023-12-20T09:09:48;5.40;;;1.67;;
5507;SDS011;2776;51.046;6.772;2023-12-20T09:12:14;4.47;;;1.13;;
5507;SDS011;2776;51.046;6.772;2023-12-20T09:14:42;5.23;;;1.70;;
5507;SDS011;2776;51.046;6.772;2023-12-20T09:17:09;1.50;;;1.27;;
5507;SDS011;2776;51.046;6.772;2023-12-20T09:19:37;8.87;;;1.70;;
5507;SDS011;2776;51.046;6.772;2023-12-20T09:22:03;10.63;;;2.07;;
5507;SDS011;2776;51.046;6.772;2023-12-20T09:24:30;2.67;;;1.57;;
5507;SDS011;2776;51.046;6.772;2023-12-20T09:26:57;7.23;;;1.47;;
5507;SDS011;2776;51.046;6.772;2023-12-20T09:29:24;3.37;;;1.17;;
5507;SDS011;2776;51.046;6.772;2023-12-20T09:31:52;9.23;;;1.60;;
5507;SDS011;2776;51.046;6.772;2023-12-20T09:34:19;5.47;;;1.73;;
5507;SDS011;2776;51.046;6.772;2023-12-20T09:36:46;6.53;;;2.07;;
5507;SDS011;2776;51.046;6.772;2023-12-20T09:39:13;2.07;;;1.10;;
5507;SDS011;2776;51.046;6.772;2023-12-20T09:41:41;4.40;;;1.70;;
5507;SDS011;2776;51.046;6.772;2023-12-20T09:44:12;3.00;;;1.70;;
5507;SDS011;2776;51.046;6.772;2023-12-20T09:46:41;6.53;;;2.03;;
5507;SDS011;2776;51.046;6.772;2023-12-20T09:49:12;4.27;;;1.33;;
5507;SDS011;2776;51.046;6.772;2023-12-20T09:51:40;2.97;;;1.00;;
5507;SDS011;2776;51.046;6.772;2023-12-20T09:54:07;3.23;;;1.27;;
5507;SDS011;2776;51.046;6.772;2023-12-20T09:56:35;6.73;;;1.60;;
5507;SDS011;2776;51.046;6.772;2023-12-20T09:59:03;4.07;;;1.30;;
5507;SDS011;2776;51.046;6.772;2023-12-20T10:01:30;7.73;;;1.43;;
5507;SDS011;2776;51.046;6.772;2023-12-20T10:04:07;5.57;;;1.50;;
5507;SDS011;2776;51.046;6.772;2023-12-20T10:13:18;2.70;;;1.07;;
5507;SDS011;2776;51.046;6.772;2023-12-20T10:16:24;3.43;;;1.33;;
5507;SDS011;2776;51.046;6.772;2023-12-20T10:19:15;2.93;;;1.93;;
5507;SDS011;2776;51.046;6.772;2023-12-20T10:22:03;3.67;;;1.67;;
5507;SDS011;2776;51.046;6.772;2023-12-20T10:25:01;5.33;;;1.20;;
5507;SDS011;2776;51.046;6.772;2023-12-20T10:33:34;3.33;;;1.43;;
5507;SDS011;2776;51.046;6.772;2023-12-20T10:36:37;1.23;;;1.00;;
5507;SDS011;2776;51.046;6.772;2023-12-20T10:39:23;3.50;;;2.10;;
5507;SDS011;2776;51.046;6.772;2023-12-20T10:42:21;4.87;;;1.70;;
5507;SDS011;2776;51.046;6.772;2023-12-20T10:44:48;6.03;;;1.43;;
5507;SDS011;2776;51.046;6.772;2023-12-20T10:47:17;5.17;;;1.60;;
5507;SDS011;2776;51.046;6.772;2023-12-20T10:49:45;8.73;;;1.80;;
5507;SDS011;2776;51.046;6.772;2023-12-20T10:52:13;4.47;;;1.43;;
5507;SDS011;2776;51.046;6.772;2023-12-20T10:54:39;5.77;;;1.90;;
5507;SDS011;2776;51.046;6.772;2023-12-20T10:57:06;3.90;;;1.37;;
5507;SDS011;2776;51.046;6.772;2023-12-20T10:59:34;6.43;;;1.37;;
5507;SDS011;2776;51.046;6.772;2023-12-20T11:02:03;3.73;;;1.50;;
5507;SDS011;2776;51.046;6.772;2023-12-20T11:04:34;5.93;;;1.00;;
5507;SDS011;2776;51.046;6.772;2023-12-20T11:07:06;3.17;;;1.37;;
5507;SDS011;2776;51.046;6.772;2023-12-20T11:09:41;2.97;;;1.87;;
5507;SDS011;2776;51.046;6.772;2023-12-20T11:12:15;4.30;;;1.47;;
5507;SDS011;2776;51.046;6.772;2023-12-20T11:14:45;1.30;;;1.20;;
5507;SDS011;2776;51.046;6.772;2023-12-20T11:17:14;4.43;;;1.50;;
5507;SDS011;2776;51.046;6.772;2023-12-20T11:22:35;7.00;;;1.20;;
5507;SDS011;2776;51.046;6.772;2023-12-20T11:25:03;4.73;;;1.93;;
5507;SDS011;2776;51.046;6.772;2023-12-20T11:27:33;3.57;;;1.37;;
5507;SDS011;2776;51.046;6.772;2023-12-20T11:30:00;7.20;;;1.67;;
5507;SDS011;2776;51.046;6.772;2023-12-20T11:32:31;6.93;;;1.60;;
5507;SDS011;2776;51.046;6.772;2023-12-20T11:35:00;6.80;;;1.43;;
5507;SDS011;2776;51.046;6.772;2023-12-20T11:37:43;5.87;;;1.53;;
5507;SDS011;2776;51.046;6.772;2023-12-20T11:40:13;4.53;;;1.23;;
5507;SDS011;2776;51.046;6.772;2023-12-20T11:42:42;9.77;;;2.03;;
5507;SDS011;2776;51.046;6.772;2023-12-20T11:45:09;6.47;;;1.70;;
5507;SDS011;2776;51.046;6.772;2023-12-20T11:47:39;6.17;;;1.30;;
5507;SDS011;2776;51.046;6.772;2023-12-20T11:50:07;6.10;;;1.63;;
5507;SDS011;2776;51.046;6.772;2023-12-20T11:52:34;5.97;;;1.63;;
5507;SDS011;2776;51.046;6.772;2023-12-20T11:55:02;3.53;;;1.60;;
5507;SDS011;2776;51.046;6.772;2023-12-20T11:57:29;6.30;;;1.30;;
5507;SDS011;2776;51.046;6.772;2023-12-20T11:59:56;2.70;;;0.90;;
5507;SDS011;2776;51.046;6.772;2023-12-20T12:02:23;5.17;;;1.80;;
5507;SDS011;2776;51.046;6.772;2023-12-20T12:04:50;1.37;;;1.30;;
5507;SDS011;2776;51.046;6.772;2023-12-20T12:07:16;3.83;;;1.70;;
5507;SDS011;2776;51.046;6.772;2023-12-20T12:09:43;6.90;;;1.47;;
5507;SDS011;2776;51.046;6.772;2023-12-20T12:12:13;4.43;;;1.60;;
5507;SDS011;2776;51.046;6.772;2023-12-20T12:14:40;6.60;;;1.50;;
5507;SDS011;2776;51.046;6.772;2023-12-20T12:17:10;5.27;;;1.77;;
5507;SDS011;2776;51.046;6.772;2023-12-20T12:19:37;2.37;;;1.60;;
5507;SDS011;2776;51.046;6.772;2023-12-20T12:22:04;4.17;;;1.30;;
5507;SDS011;2776;51.046;6.772;2023-12-20T12:24:33;3.63;;;1.33;;
5507;SDS011;2776;51.046;6.772;2023-12-20T12:27:00;7.03;;;2.30;;
5507;SDS011;2776;51.046;6.772;2023-12-20T12:29:28;5.53;;;2.13;;
5507;SDS011;2776;51.046;6.772;2023-12-20T12:31:55;9.13;;;1.47;;
5507;SDS011;2776;51.046;6.772;2023-12-20T12:34:21;3.93;;;1.37;;
5507;SDS011;2776;51.046;6.772;2023-12-20T12:36:48;5.97;;;1.87;;
5507;SDS011;2776;51.046;6.772;2023-12-20T12:39:15;4.90;;;1.83;;
5507;SDS011;2776;51.046;6.772;2023-12-20T12:41:44;6.90;;;1.30;;
5507;SDS011;2776;51.046;6.772;2023-12-20T12:44:11;5.13;;;1.90;;
5507;SDS011;2776;51.046;6.772;2023-12-20T12:46:39;5.87;;;2.07;;
5507;SDS011;2776;51.046;6.772;2023-12-20T12:49:05;5.20;;;1.97;;
5507;SDS011;2776;51.046;6.772;2023-12-20T12:51:32;7.90;;;1.93;;
5507;SDS011;2776;51.046;6.772;2023-12-20T12:53:59;5.70;;;1.63;;
5507;SDS011;2776;51.046;6.772;2023-12-20T12:56:25;3.80;;;1.40;;
5507;SDS011;2776;51.046;6.772;2023-12-20T12:58:52;4.90;;;2.13;;
5507;SDS011;2776;51.046;6.772;2023-12-20T13:01:20;5.37;;;2.03;;
5507;SDS011;2776;51.046;6.772;2023-12-20T13:03:48;7.50;;;2.10;;
5507;SDS011;2776;51.046;6.772;2023-12-20T13:06:15;2.07;;;1.50;;
5507;SDS011;2776;51.046;6.772;2023-12-20T13:08:42;4.77;;;1.37;;
5507;SDS011;2776;51.046;6.772;2023-12-20T13:11:09;4.33;;;1.77;;
5507;SDS011;2776;51.046;6.772;2023-12-20T13:13:36;5.47;;;1.83;;
5507;SDS011;2776;51.046;6.772;2023-12-20T13:16:03;5.67;;;1.97;;
5507;SDS011;2776;51.046;6.772;2023-12-20T13:18:30;5.47;;;1.70;;
5507;SDS011;2776;51.046;6.772;2023-12-20T13:20:58;2.77;;;1.37;;
5507;SDS011;2776;51.046;6.772;2023-12-20T13:23:25;6.60;;;1.57;;
5507;SDS011;2776;51.046;6.772;2023-12-20T13:25:51;2.87;;;1.73;;
5507;SDS011;2776;51.046;6.772;2023-12-20T13:28:18;4.10;;;1.90;;
5507;SDS011;2776;51.046;6.772;2023-12-20T13:30:45;6.83;;;2.33;;
5507;SDS011;2776;51.046;6.772;2023-12-20T13:33:11;7.17;;;2.27;;
5507;SDS011;2776;51.046;6.772;2023-12-20T13:35:38;1.73;;;1.37;;
5507;SDS011;2776;51.046;6.772;2023-12-20T13:38:06;3.80;;;1.73;;
5507;SDS011;2776;51.046;6.772;2023-12-20T13:40:33;6.70;;;2.17;;
5507;SDS011;2776;51.046;6.772;2023-12-20T13:43:00;6.27;;;2.00;;
5507;SDS011;2776;51.046;6.772;2023-12-20T13:45:28;3.03;;;1.20;;
5507;SDS011;2776;51.046;6.772;2023-12-20T13:47:54;4.27;;;1.60;;
5507;SDS011;2776;51.046;6.772;2023-12-20T13:50:21;7.57;;;2.20;;
5507;SDS011;2776;51.046;6.772;2023-12-20T13:52:48;6.33;;;1.50;;
5507;SDS011;2776;51.046;6.772;2023-12-20T13:55:16;7.33;;;1.73;;
5507;SDS011;2776;51.046;6.772;2023-12-20T13:57:42;4.90;;;1.50;;
5507;SDS011;2776;51.046;6.772;2023-12-20T14:00:10;4.73;;;1.77;;
5507;SDS011;2776;51.046;6.772;2023-12-20T14:02:39;3.47;;;1.60;;
5507;SDS011;2776;51.046;6.772;2023-12-20T14:05:06;2.07;;;1.10;;
5507;SDS011;2776;51.046;6.772;2023-12-20T14:07:34;5.03;;;1.67;;
5507;SDS011;2776;51.046;6.772;2023-12-20T14:10:00;3.00;;;1.70;;
5507;SDS011;2776;51.046;6.772;2023-12-20T14:12:28;2.20;;;1.43;;
5507;SDS011;2776;51.046;6.772;2023-12-20T14:14:55;8.23;;;2.27;;
5507;SDS011;2776;51.046;6.772;2023-12-20T14:17:22;3.07;;;1.37;;
5507;SDS011;2776;51.046;6.772;2023-12-20T14:19:48;3.43;;;1.67;;
5507;SDS011;2776;51.046;6.772;2023-12-20T14:22:16;7.33;;;1.67;;
5507;SDS011;2776;51.046;6.772;2023-12-20T14:24:43;10.97;;;1.80;;
5507;SDS011;2776;51.046;6.772;2023-12-20T14:27:10;3.00;;;1.50;;
5507;SDS011;2776;51.046;6.772;2023-12-20T14:29:39;5.00;;;1.77;;
5507;SDS011;2776;51.046;6.772;2023-12-20T14:32:06;2.40;;;1.33;;
5507;SDS011;2776;51.046;6.772;2023-12-20T14:34:33;4.67;;;1.37;;
5507;SDS011;2776;51.046;6.772;2023-12-20T14:36:59;3.10;;;1.60;;
5507;SDS011;2776;51.046;6.772;2023-12-20T14:39:26;5.33;;;2.70;;
5507;SDS011;2776;51.046;6.772;2023-12-20T14:41:53;4.53;;;1.60;;
5507;SDS011;2776;51.046;6.772;2023-12-20T14:44:20;5.47;;;2.53;;
5507;SDS011;2776;51.046;6.772;2023-12-20T14:46:48;2.30;;;1.87;;
5507;SDS011;2776;51.046;6.772;2023-12-20T14:49:14;4.73;;;1.80;;
5507;SDS011;2776;51.046;6.772;2023-12-20T14:51:43;10.07;;;1.67;;
5507;SDS011;2776;51.046;6.772;2023-12-20T14:54:11;2.97;;;1.30;;
5507;SDS011;2776;51.046;6.772;2023-12-20T14:56:38;6.77;;;1.70;;
5507;SDS011;2776;51.046;6.772;2023-12-20T14:59:05;6.13;;;2.03;;
5507;SDS011;2776;51.046;6.772;2023-12-20T15:01:33;4.30;;;1.57;;
5507;SDS011;2776;51.046;6.772;2023-12-20T15:04:01;6.20;;;2.03;;
5507;SDS011;2776;51.046;6.772;2023-12-20T15:06:29;4.40;;;1.57;;
5507;SDS011;2776;51.046;6.772;2023-12-20T15:08:56;5.20;;;1.87;;
5507;SDS011;2776;51.046;6.772;2023-12-20T15:11:23;6.23;;;1.70;;
5507;SDS011;2776;51.046;6.772;2023-12-20T15:13:50;7.17;;;2.10;;
5507;SDS011;2776;51.046;6.772;2023-12-20T15:16:21;2.70;;;1.33;;
5507;SDS011;2776;51.046;6.772;2023-12-20T15:18:48;4.07;;;1.70;;
5507;SDS011;2776;51.046;6.772;2023-12-20T15:21:16;2.97;;;1.37;;
5507;SDS011;2776;51.046;6.772;2023-12-20T15:23:43;5.30;;;1.63;;
5507;SDS011;2776;51.046;6.772;2023-12-20T15:26:17;5.13;;;1.43;;
5507;SDS011;2776;51.046;6.772;2023-12-20T15:28:44;5.37;;;1.60;;
5507;SDS011;2776;51.046;6.772;2023-12-20T15:31:11;2.33;;;1.77;;
5507;SDS011;2776;51.046;6.772;2023-12-20T15:33:38;1.70;;;1.33;;
5507;SDS011;2776;51.046;6.772;2023-12-20T15:36:06;7.13;;;2.03;;
5507;SDS011;2776;51.046;6.772;2023-12-20T15:38:34;5.67;;;2.07;;
5507;SDS011;2776;51.046;6.772;2023-12-20T15:41:00;5.47;;;1.70;;
5507;SDS011;2776;51.046;6.772;2023-12-20T15:43:28;4.33;;;1.87;;
5507;SDS011;2776;51.046;6.772;2023-12-20T15:45:54;3.60;;;1.77;;
5507;SDS011;2776;51.046;6.772;2023-12-20T15:48:21;4.03;;;1.63;;
5507;SDS011;2776;51.046;6.772;2023-12-20T15:50:53;2.63;;;1.90;;
5507;SDS011;2776;51.046;6.772;2023-12-20T15:53:19;3.17;;;1.53;;
5507;SDS011;2776;51.046;6.772;2023-12-20T15:55:47;4.23;;;2.07;;